Terminal Aerodrome Forecast
Issued by NWS

Home | Current Version | Previous Version | Text Only | Print | Product List | Glossary On
Versions: 1 2 3 4 5 6 7 8 9 10 11 12 13 14 15 16 17 18 19 20 21 22 23 24 25 26 27 28 29 30 31 32 33 34 35 36 37 38 39 40
000
FTUS41 KGYX 072320
TAFMHT
TAF
KMHT 072320Z 0800/0824 09006KT P6SM FEW050 SCT250
     FM080600 01010G16KT P6SM BKN150
     FM081200 36014G20KT P6SM BKN100
     FM081400 36017G24KT P6SM OVC030
      TEMPO 0814/0817 3SM -SN BR OVC020
     FM081700 36015G22KT 3/4SM -SN BR OVC019=

USA.gov is the U.S. government's official web portal to all federal, state and local government web resources and services.